createdAt,value
2019-03-30T00:00:39.201Z,99.99
2019-03-30T00:01:39.367Z,99.99
2019-03-30T00:02:39.325Z,99.99
2019-03-30T00:03:39.381Z,99.99
2019-03-30T00:04:39.442Z,99.99
2019-03-30T00:05:39.507Z,99.99
2019-03-30T00:06:39.573Z,99.99
2019-03-30T00:07:39.637Z,99.99
2019-03-30T00:08:39.693Z,99.99
2019-03-30T00:09:39.754Z,99.99
2019-03-30T00:10:39.814Z,99.99
2019-03-30T00:11:39.887Z,99.99
2019-03-30T00:12:39.946Z,99.99
2019-03-30T00:13:39.997Z,99.99
2019-03-30T00:14:40.061Z,99.99
2019-03-30T00:15:40.127Z,99.99
2019-03-30T00:16:40.212Z,99.99
2019-03-30T00:17:40.251Z,99.99
2019-03-30T00:18:41.565Z,99.99
2019-03-30T00:19:40.371Z,99.99
2019-03-30T00:20:40.434Z,99.99
2019-03-30T00:21:40.507Z,99.99
2019-03-30T00:22:40.566Z,99.99
2019-03-30T00:23:40.620Z,99.99
2019-03-30T00:24:40.683Z,99.99
2019-03-30T00:25:40.742Z,99.99
2019-03-30T00:26:40.809Z,99.99
2019-03-30T00:27:40.877Z,99.99
2019-03-30T00:28:40.926Z,99.99
2019-03-30T00:29:40.990Z,99.99
2019-03-30T00:30:41.051Z,99.99
2019-03-30T00:31:41.450Z,99.99
2019-03-30T00:32:41.174Z,99.99
2019-03-30T00:33:41.239Z,99.99
2019-03-30T00:34:41.298Z,99.99
2019-03-30T00:35:41.363Z,99.99
2019-03-30T00:36:41.427Z,99.99
2019-03-30T00:37:41.507Z,99.99
2019-03-30T00:38:41.543Z,99.99
2019-03-30T00:39:41.608Z,99.99
2019-03-30T00:40:41.671Z,99.99
2019-03-30T00:41:41.730Z,99.99
2019-03-30T00:42:41.798Z,99.99
2019-03-30T00:43:41.858Z,99.99
2019-03-30T00:44:41.914Z,99.99
2019-03-30T00:45:41.975Z,99.99
2019-03-30T00:46:42.040Z,99.99
2019-03-30T00:47:42.099Z,99.99
2019-03-30T00:48:42.295Z,99.99
2019-03-30T00:49:48.989Z,99.99
2019-03-30T00:50:42.283Z,99.99
2019-03-30T00:51:42.346Z,99.99
2019-03-30T00:52:42.407Z,99.99
2019-03-30T00:53:42.475Z,99.99
2019-03-30T00:54:42.541Z,99.99
2019-03-30T00:55:42.590Z,99.99
2019-03-30T00:56:42.658Z,99.99
2019-03-30T00:57:42.779Z,99.99
2019-03-30T00:58:42.783Z,99.99
2019-03-30T00:59:42.871Z,99.99
2019-03-30T01:00:42.899Z,99.99
2019-03-30T01:01:42.969Z,99.99
2019-03-30T01:02:43.023Z,99.99
2019-03-30T01:03:43.415Z,99.99
2019-03-30T01:04:43.143Z,99.99
2019-03-30T01:05:43.208Z,99.99
2019-03-30T01:06:43.267Z,99.99
2019-03-30T01:07:43.335Z,99.99
2019-03-30T01:08:43.391Z,99.99
2019-03-30T01:09:43.464Z,99.99
2019-03-30T01:10:43.516Z,99.99
2019-03-30T01:11:43.575Z,99.99
2019-03-30T01:12:43.636Z,99.99
2019-03-30T01:13:43.705Z,99.99
2019-03-30T01:14:43.774Z,99.99
2019-03-30T01:15:43.829Z,99.99
2019-03-30T01:16:43.885Z,99.99
2019-03-30T01:17:43.943Z,99.99
2019-03-30T01:18:44.014Z,99.99
2019-03-30T01:19:44.168Z,99.99
2019-03-30T01:20:44.128Z,99.99
2019-03-30T01:21:44.188Z,99.99
2019-03-30T01:22:44.252Z,99.99
2019-03-30T01:23:44.315Z,99.99
2019-03-30T01:24:44.379Z,99.99
2019-03-30T01:25:44.448Z,99.99
2019-03-30T01:26:44.497Z,99.99
2019-03-30T01:27:44.560Z,99.99
2019-03-30T01:28:44.625Z,99.99
2019-03-30T01:29:44.689Z,99.99
2019-03-30T01:30:44.748Z,99.99
2019-03-30T01:31:44.804Z,99.99
2019-03-30T01:32:44.868Z,99.99
2019-03-30T01:33:44.929Z,99.99
2019-03-30T01:34:44.999Z,99.99
2019-03-30T01:35:45.056Z,99.99
2019-03-30T01:36:45.135Z,99.99
2019-03-30T01:37:45.180Z,99.99
2019-03-30T01:38:45.233Z,99.99
2019-03-30T01:39:45.297Z,99.99
2019-03-30T01:40:45.373Z,99.99
2019-03-30T01:41:45.416Z,99.99
2019-03-30T01:42:45.477Z,99.99
2019-03-30T01:43:45.541Z,99.99
2019-03-30T01:44:45.600Z,99.99
2019-03-30T01:45:45.668Z,99.99
2019-03-30T01:46:45.730Z,99.99
2019-03-30T01:47:45.785Z,99.99
2019-03-30T01:48:45.848Z,99.99
2019-03-30T01:49:45.909Z,99.99
2019-03-30T01:50:45.981Z,99.99
2019-03-30T01:51:46.045Z,99.99
2019-03-30T01:52:46.097Z,99.99
2019-03-30T01:53:46.153Z,99.99
2019-03-30T01:54:46.213Z,99.99
2019-03-30T01:55:46.281Z,99.99
2019-03-30T01:56:46.345Z,99.99
2019-03-30T01:57:46.399Z,99.99
2019-03-30T01:58:46.459Z,99.99
2019-03-30T01:59:46.521Z,99.99
2019-03-30T02:00:46.581Z,99.99
2019-03-30T02:01:46.649Z,99.99
2019-03-30T02:02:46.710Z,99.99
2019-03-30T02:03:46.766Z,99.99
2019-03-30T02:04:46.825Z,99.99
2019-03-30T02:05:46.887Z,99.99
2019-03-30T02:06:46.958Z,99.99
2019-03-30T02:07:47.034Z,99.99
2019-03-30T02:08:47.069Z,99.99
2019-03-30T02:09:47.137Z,99.99
2019-03-30T02:10:47.207Z,99.99
2019-03-30T02:11:47.265Z,99.99
2019-03-30T02:12:47.314Z,99.99
2019-03-30T02:13:47.378Z,99.99
2019-03-30T02:14:47.438Z,99.99
2019-03-30T02:15:47.502Z,99.99
2019-03-30T02:16:47.567Z,99.99
2019-03-30T02:17:47.630Z,99.99
2019-03-30T02:18:47.682Z,99.99
2019-03-30T02:19:47.746Z,99.99
2019-03-30T02:20:47.807Z,99.99
2019-03-30T02:21:47.874Z,99.99
2019-03-30T02:22:47.934Z,99.99
2019-03-30T02:23:47.990Z,99.99
2019-03-30T02:24:48.050Z,99.99
2019-03-30T02:25:48.110Z,99.99
2019-03-30T02:26:48.183Z,99.99
2019-03-30T02:27:48.235Z,99.99
2019-03-30T02:28:48.299Z,99.99
2019-03-30T02:29:48.358Z,99.99
2019-03-30T02:30:48.432Z,99.99
2019-03-30T02:31:48.486Z,99.99
2019-03-30T02:32:48.548Z,99.99
2019-03-30T02:33:48.605Z,99.99
2019-03-30T02:34:48.667Z,99.99
2019-03-30T02:35:48.723Z,99.99
2019-03-30T02:36:48.792Z,99.99
2019-03-30T02:37:48.852Z,99.99
2019-03-30T02:38:48.912Z,99.99
2019-03-30T02:39:48.971Z,99.99
2019-03-30T02:40:49.035Z,99.99
2019-03-30T02:41:49.109Z,99.99
2019-03-30T02:42:49.151Z,99.99
2019-03-30T02:43:49.211Z,99.99
2019-03-30T02:44:49.276Z,99.99
2019-03-30T02:45:49.340Z,99.99
2019-03-30T02:46:49.413Z,99.99
2019-03-30T02:47:49.465Z,99.99
2019-03-30T02:48:49.602Z,99.99
2019-03-30T02:49:49.580Z,99.99
2019-03-30T02:50:50.803Z,99.99
2019-03-30T02:51:49.709Z,99.99
2019-03-30T02:52:49.807Z,99.99
2019-03-30T02:53:49.825Z,99.99
2019-03-30T02:54:49.899Z,99.99
2019-03-30T02:55:49.944Z,99.99
2019-03-30T02:56:50.015Z,99.99
2019-03-30T02:57:50.079Z,99.99
2019-03-30T02:58:50.129Z,99.99
2019-03-30T02:59:50.198Z,99.99
2019-03-30T03:00:50.249Z,99.99
2019-03-30T03:01:50.414Z,99.99
2019-03-30T03:02:50.374Z,99.99
2019-03-30T03:03:50.433Z,99.99
2019-03-30T03:04:50.530Z,99.99
2019-03-30T03:05:50.558Z,99.99
2019-03-30T03:06:50.625Z,99.99
2019-03-30T03:07:50.686Z,99.99
2019-03-30T03:08:50.741Z,99.99
2019-03-30T03:09:50.804Z,99.99
2019-03-30T03:10:50.861Z,99.99
2019-03-30T03:11:50.930Z,99.99
2019-03-30T03:12:50.991Z,99.99
2019-03-30T03:13:51.047Z,99.99
2019-03-30T03:14:51.111Z,99.99
2019-03-30T03:15:51.166Z,99.99
2019-03-30T03:16:51.241Z,99.99
2019-03-30T03:17:51.294Z,99.99
2019-03-30T03:18:51.350Z,99.99
2019-03-30T03:19:51.417Z,99.99
2019-03-30T03:21:06.673Z,99.99
2019-03-30T03:21:51.538Z,99.99
2019-03-30T03:22:51.598Z,99.99
2019-03-30T03:23:51.654Z,99.99
2019-03-30T03:24:51.725Z,99.99
2019-03-30T03:25:51.779Z,99.99
2019-03-30T03:26:51.843Z,99.99
2019-03-30T03:27:51.907Z,99.99
2019-03-30T03:28:51.958Z,99.99
2019-03-30T03:29:52.023Z,99.99
2019-03-30T03:30:52.078Z,99.99
2019-03-30T03:31:52.227Z,99.99
2019-03-30T03:32:52.236Z,99.99
2019-03-30T03:33:52.263Z,99.99
2019-03-30T03:34:52.358Z,99.99
2019-03-30T03:35:52.382Z,99.99
2019-03-30T03:36:52.451Z,99.99
2019-03-30T03:37:52.517Z,99.99
2019-03-30T03:38:52.575Z,99.99
2019-03-30T03:39:52.633Z,99.99
2019-03-30T03:40:52.687Z,99.99
2019-03-30T03:41:52.755Z,99.99
2019-03-30T03:42:52.820Z,99.99
2019-03-30T03:43:52.872Z,99.99
2019-03-30T03:44:52.934Z,99.99
2019-03-30T03:45:53.001Z,99.99
2019-03-30T03:46:53.063Z,99.99
2019-03-30T03:47:53.125Z,99.99
2019-03-30T03:48:53.178Z,99.99
2019-03-30T03:49:53.236Z,99.99
2019-03-30T03:50:53.294Z,99.99
2019-03-30T03:51:53.371Z,99.99
2019-03-30T03:52:53.426Z,99.99
2019-03-30T03:53:53.480Z,99.99
2019-03-30T03:54:53.545Z,99.99
2019-03-30T03:55:53.604Z,99.99
2019-03-30T03:56:53.674Z,99.99
2019-03-30T03:57:53.728Z,99.99
2019-03-30T03:58:53.787Z,99.99
2019-03-30T03:59:53.856Z,99.99
2019-03-30T04:00:53.905Z,99.99
2019-03-30T04:01:53.971Z,99.99
2019-03-30T04:02:54.032Z,99.99
2019-03-30T04:03:54.089Z,99.99
2019-03-30T04:04:54.148Z,99.99
2019-03-30T04:05:54.215Z,99.99
2019-03-30T04:06:54.271Z,99.99
2019-03-30T04:07:54.355Z,99.99
2019-03-30T04:08:54.397Z,99.99
2019-03-30T04:09:54.457Z,99.99
2019-03-30T04:10:54.512Z,99.99
2019-03-30T04:11:54.575Z,99.99
2019-03-30T04:12:54.650Z,99.99
2019-03-30T04:13:54.703Z,99.99
2019-03-30T04:14:54.759Z,99.99
2019-03-30T04:15:54.831Z,99.99
2019-03-30T04:16:54.876Z,99.99
2019-03-30T04:17:54.945Z,99.99
2019-03-30T04:18:55.005Z,99.99
2019-03-30T04:19:55.060Z,99.99
2019-03-30T04:20:55.121Z,99.99
2019-03-30T04:21:55.182Z,99.99
2019-03-30T04:22:55.574Z,99.99
2019-03-30T04:23:55.311Z,99.99
2019-03-30T04:24:55.360Z,99.99
2019-03-30T04:25:55.425Z,99.99
2019-03-30T04:26:55.489Z,99.99
2019-03-30T04:27:55.550Z,99.99
2019-03-30T04:28:55.669Z,99.99
2019-03-30T04:29:55.670Z,99.99
2019-03-30T04:30:55.730Z,99.99
2019-03-30T04:31:55.799Z,99.99
2019-03-30T04:32:55.849Z,99.99
2019-03-30T04:33:55.932Z,99.99
2019-03-30T04:34:55.985Z,99.99
2019-03-30T04:35:56.035Z,99.99
2019-03-30T04:36:56.098Z,99.99
2019-03-30T04:37:56.153Z,99.99
2019-03-30T04:38:56.305Z,99.99
2019-03-30T04:39:56.273Z,99.99
2019-03-30T04:40:56.334Z,99.99
2019-03-30T04:41:56.397Z,99.99
2019-03-30T04:42:56.458Z,99.99
2019-03-30T04:43:56.534Z,99.99
2019-03-30T04:44:56.599Z,99.99
2019-03-30T04:45:56.638Z,99.99
2019-03-30T04:46:56.703Z,99.99
2019-03-30T04:47:56.763Z,99.99
2019-03-30T04:48:56.830Z,99.99
2019-03-30T04:49:56.898Z,99.99
2019-03-30T04:50:56.942Z,99.99
2019-03-30T04:51:58.111Z,99.99
2019-03-30T04:52:57.062Z,99.99
2019-03-30T04:53:57.272Z,99.99
2019-03-30T04:54:57.198Z,99.99
2019-03-30T04:55:57.247Z,99.99
2019-03-30T04:56:57.311Z,99.99
2019-03-30T04:57:57.708Z,99.99
2019-03-30T04:58:57.463Z,99.99
2019-03-30T04:59:57.498Z,99.99
2019-03-30T05:00:57.550Z,99.99
2019-03-30T05:01:57.610Z,99.99
2019-03-30T05:02:57.670Z,99.99
2019-03-30T05:03:57.735Z,99.99
2019-03-30T05:04:57.798Z,99.99
2019-03-30T05:05:57.855Z,99.99
2019-03-30T05:06:57.915Z,99.99
2019-03-30T05:07:57.979Z,99.99
2019-03-30T05:08:58.063Z,99.99
2019-03-30T05:09:58.110Z,99.99
2019-03-30T05:10:58.158Z,99.99
2019-03-30T05:11:58.219Z,99.99
2019-03-30T05:12:58.279Z,99.99
2019-03-30T05:13:58.432Z,99.99
2019-03-30T05:14:58.398Z,99.99
2019-03-30T05:15:58.463Z,99.99
2019-03-30T05:16:58.525Z,99.99
2019-03-30T05:17:58.590Z,99.99
2019-03-30T05:18:58.656Z,99.99
2019-03-30T05:19:58.711Z,99.99
2019-03-30T05:20:58.764Z,99.99
2019-03-30T05:22:11.537Z,99.99
2019-03-30T05:22:58.887Z,99.99
2019-03-30T05:23:58.959Z,99.99
2019-03-30T05:24:59.015Z,99.99
2019-03-30T05:25:59.070Z,99.99
2019-03-30T05:26:59.128Z,99.99
2019-03-30T05:27:59.187Z,99.99
2019-03-30T05:28:59.312Z,99.99
2019-03-30T05:29:59.327Z,99.99
2019-03-30T05:30:59.372Z,99.99
2019-03-30T05:31:59.436Z,99.99
2019-03-30T05:33:05.984Z,99.99
2019-03-30T05:33:59.564Z,99.99
2019-03-30T05:34:59.619Z,99.99
2019-03-30T05:35:59.676Z,99.99
2019-03-30T05:36:59.739Z,99.99
2019-03-30T05:38:01.398Z,99.99
2019-03-30T05:38:59.876Z,99.99
2019-03-30T05:39:59.924Z,99.99
2019-03-30T05:40:59.975Z,99.99
2019-03-30T05:42:00.036Z,99.99
2019-03-30T05:43:00.100Z,99.99
2019-03-30T05:44:00.172Z,99.99
2019-03-30T05:45:00.449Z,99.99
2019-03-30T05:46:00.282Z,99.99
2019-03-30T05:47:00.340Z,99.99
2019-03-30T05:48:00.405Z,99.99
2019-03-30T05:49:00.485Z,99.99
2019-03-30T05:50:00.535Z,99.99
2019-03-30T05:51:00.589Z,99.99
2019-03-30T05:52:00.704Z,99.99
2019-03-30T05:53:00.706Z,99.99
2019-03-30T05:54:00.773Z,99.99
2019-03-30T05:55:00.833Z,99.99
2019-03-30T05:56:00.889Z,99.99
2019-03-30T05:57:00.950Z,99.99
2019-03-30T05:58:01.009Z,99.99
2019-03-30T05:59:01.082Z,99.99
2019-03-30T06:00:01.133Z,99.99
2019-03-30T06:01:01.194Z,99.99
2019-03-30T06:02:01.254Z,99.99
2019-03-30T06:03:01.315Z,99.99
2019-03-30T06:04:01.382Z,99.99
2019-03-30T06:05:03.345Z,99.99
2019-03-30T06:06:01.502Z,99.99
2019-03-30T06:07:01.559Z,99.99
2019-03-30T06:08:01.622Z,99.99
2019-03-30T06:09:01.689Z,99.99
2019-03-30T06:10:01.751Z,99.99
2019-03-30T06:11:01.807Z,99.99
2019-03-30T06:12:01.862Z,99.99
2019-03-30T06:13:01.927Z,99.99
2019-03-30T06:14:01.994Z,99.99
2019-03-30T06:15:02.058Z,99.99
2019-03-30T06:16:02.115Z,99.99
2019-03-30T06:17:02.170Z,99.99
2019-03-30T06:18:02.234Z,99.99
2019-03-30T06:19:02.308Z,99.99
2019-03-30T06:20:02.352Z,99.99
2019-03-30T06:21:02.410Z,99.99
2019-03-30T06:22:02.475Z,99.99
2019-03-30T06:23:02.534Z,99.99
2019-03-30T06:24:02.614Z,99.99
2019-03-30T06:25:02.669Z,99.99
2019-03-30T06:26:02.720Z,99.99
2019-03-30T06:27:02.780Z,99.99
2019-03-30T06:28:02.849Z,99.99
2019-03-30T06:29:02.911Z,99.99
2019-03-30T06:30:02.971Z,99.99
2019-03-30T06:31:03.023Z,99.99
2019-03-30T06:32:03.092Z,99.99
2019-03-30T06:33:03.151Z,99.99
2019-03-30T06:34:03.251Z,99.99
2019-03-30T06:35:03.280Z,99.99
2019-03-30T06:36:03.326Z,99.99
2019-03-30T06:37:03.391Z,99.99
2019-03-30T06:38:03.463Z,99.99
2019-03-30T06:39:03.519Z,99.99
2019-03-30T06:40:03.583Z,99.99
2019-03-30T06:41:03.635Z,99.99
2019-03-30T06:42:03.704Z,99.99
2019-03-30T06:43:03.762Z,99.79
2019-03-30T06:44:03.834Z,99.79
2019-03-30T06:45:03.891Z,99.50
2019-03-30T06:46:03.944Z,99.31
2019-03-30T06:47:04.011Z,98.93
2019-03-30T06:48:04.068Z,99.08
2019-03-30T06:49:04.224Z,98.13
2019-03-30T06:50:04.192Z,97.93
2019-03-30T06:51:04.258Z,97.93
2019-03-30T06:52:04.312Z,97.36
2019-03-30T06:53:04.377Z,97.17
2019-03-30T06:54:04.446Z,96.41
2019-03-30T06:55:04.504Z,96.79
2019-03-30T06:56:04.574Z,95.56
2019-03-30T06:57:04.619Z,94.98
2019-03-30T06:58:04.688Z,94.74
2019-03-30T06:59:04.757Z,95.22
2019-03-30T07:00:04.830Z,94.56
2019-03-30T07:01:04.869Z,94.27
2019-03-30T07:02:04.934Z,93.70
2019-03-30T07:03:04.997Z,93.60
2019-03-30T07:04:05.067Z,93.60
2019-03-30T07:05:05.120Z,93.22
2019-03-30T07:06:05.177Z,93.03
2019-03-30T07:07:05.240Z,93.03
2019-03-30T07:08:05.301Z,92.55
2019-03-30T07:09:05.370Z,92.65
2019-03-30T07:10:05.435Z,91.94
2019-03-30T07:11:05.490Z,91.94
2019-03-30T07:12:05.552Z,91.74
2019-03-30T07:13:05.614Z,91.55
2019-03-30T07:14:05.682Z,91.55
2019-03-30T07:15:05.753Z,91.08
2019-03-30T07:16:05.807Z,91.08
2019-03-30T07:17:05.862Z,90.60
2019-03-30T07:18:05.932Z,91.08
2019-03-30T07:19:05.997Z,91.08
2019-03-30T07:20:06.052Z,91.08
2019-03-30T07:21:06.111Z,90.79
2019-03-30T07:22:06.171Z,91.17
2019-03-30T07:23:12.159Z,90.84
2019-03-30T07:24:06.293Z,90.08
2019-03-30T07:25:06.369Z,89.69
2019-03-30T07:26:06.422Z,89.79
2019-03-30T07:27:06.482Z,89.40
2019-03-30T07:28:06.550Z,88.93
2019-03-30T07:29:06.609Z,88.45
2019-03-30T07:30:06.674Z,88.26
2019-03-30T07:31:06.742Z,88.17
2019-03-30T07:32:06.798Z,87.69
2019-03-30T07:33:06.858Z,87.50
2019-03-30T07:34:06.918Z,87.45
2019-03-30T07:35:06.990Z,87.45
2019-03-30T07:36:07.050Z,85.97
2019-03-30T07:37:07.106Z,83.53
2019-03-30T07:38:07.170Z,81.51
2019-03-30T07:39:07.235Z,79.64
2019-03-30T07:40:07.298Z,78.14
2019-03-30T07:41:07.406Z,76.56
2019-03-30T07:42:07.430Z,75.73
2019-03-30T07:43:07.549Z,72.80
2019-03-30T07:44:07.559Z,72.13
2019-03-30T07:45:07.623Z,70.12
2019-03-30T07:46:07.695Z,70.25
2019-03-30T07:47:07.763Z,69.62
2019-03-30T07:48:07.822Z,68.18
2019-03-30T07:49:07.891Z,68.18
2019-03-30T07:50:07.956Z,67.79
2019-03-30T07:51:08.032Z,67.32
2019-03-30T07:52:08.098Z,67.25
2019-03-30T07:53:08.155Z,68.01
2019-03-30T07:54:08.223Z,68.87
2019-03-30T07:55:08.291Z,68.97
2019-03-30T07:56:09.044Z,69.01
2019-03-30T07:57:16.770Z,69.04
2019-03-30T07:58:08.518Z,67.95
2019-03-30T07:59:08.563Z,67.63
2019-03-30T08:00:08.634Z,67.25
2019-03-30T08:01:08.703Z,66.33
2019-03-30T08:02:08.772Z,65.43
2019-03-30T08:03:08.836Z,66.26
2019-03-30T08:04:08.906Z,66.77
2019-03-30T08:05:08.975Z,66.74
2019-03-30T08:06:09.044Z,63.89
2019-03-30T08:07:09.116Z,62.07
2019-03-30T08:08:09.492Z,61.84
2019-03-30T08:09:09.436Z,62.71
2019-03-30T08:10:09.603Z,64.02
2019-03-30T08:11:09.388Z,63.28
2019-03-30T08:12:09.460Z,63.28
2019-03-30T08:13:09.520Z,62.61
2019-03-30T08:14:09.588Z,62.77
2019-03-30T08:15:09.658Z,63.35
2019-03-30T08:16:09.733Z,62.48
2019-03-30T08:17:09.801Z,62.93
2019-03-30T08:18:09.864Z,63.54
2019-03-30T08:19:09.928Z,63.70
2019-03-30T08:20:10.000Z,63.70
2019-03-30T08:21:10.192Z,63.51
2019-03-30T08:22:10.132Z,63.89
2019-03-30T08:23:10.204Z,64.47
2019-03-30T08:24:10.286Z,64.50
2019-03-30T08:25:10.340Z,64.28
2019-03-30T08:26:10.413Z,62.87
2019-03-30T08:27:10.484Z,59.82
2019-03-30T08:28:10.547Z,58.70
2019-03-30T08:29:10.617Z,57.64
2019-03-30T08:30:10.685Z,57.28
2019-03-30T08:31:10.759Z,56.27
2019-03-30T08:32:10.847Z,55.15
2019-03-30T08:33:10.890Z,53.73
2019-03-30T08:34:10.967Z,52.79
2019-03-30T08:35:11.029Z,51.92
2019-03-30T08:36:11.149Z,51.92
2019-03-30T08:37:11.174Z,52.23
2019-03-30T08:38:11.244Z,51.95
2019-03-30T08:39:11.314Z,50.40
2019-03-30T08:40:11.390Z,50.57
2019-03-30T08:41:11.461Z,51.27
2019-03-30T08:42:11.555Z,51.85
2019-03-30T08:43:11.613Z,50.79
2019-03-30T08:44:11.671Z,51.37
2019-03-30T08:45:11.745Z,51.05
2019-03-30T08:46:11.818Z,50.47
2019-03-30T08:47:11.894Z,50.64
2019-03-30T08:48:11.957Z,50.64
2019-03-30T08:49:12.030Z,51.68
2019-03-30T08:50:12.098Z,52.23
2019-03-30T08:51:12.195Z,53.51
2019-03-30T08:52:12.254Z,53.03
2019-03-30T08:53:12.314Z,53.67
2019-03-30T08:54:12.385Z,53.31
2019-03-30T08:55:12.458Z,53.13
2019-03-30T08:56:12.534Z,53.03
2019-03-30T08:57:12.606Z,53.51
2019-03-30T08:58:12.678Z,52.83
2019-03-30T08:59:12.743Z,52.55
2019-03-30T09:00:12.814Z,52.57
2019-03-30T09:01:12.891Z,51.51
2019-03-30T09:02:12.962Z,51.22
2019-03-30T09:03:13.031Z,51.99
2019-03-30T09:04:13.101Z,51.51
2019-03-30T09:05:13.170Z,50.45
2019-03-30T09:06:13.279Z,51.70
2019-03-30T09:07:13.309Z,52.37
2019-03-30T09:08:13.382Z,51.73
2019-03-30T09:09:13.454Z,51.73
2019-03-30T09:10:13.527Z,50.21
2019-03-30T09:11:13.604Z,50.79
2019-03-30T09:12:13.686Z,49.63
2019-03-30T09:13:13.741Z,49.95
2019-03-30T09:14:13.811Z,50.62
2019-03-30T09:15:13.883Z,49.44
2019-03-30T09:16:13.960Z,48.18
2019-03-30T09:17:14.031Z,48.76
2019-03-30T09:18:14.096Z,49.15
2019-03-30T09:19:14.159Z,49.27
2019-03-30T09:20:14.239Z,48.49
2019-03-30T09:21:14.395Z,48.18
2019-03-30T09:22:14.380Z,48.69
2019-03-30T09:23:14.453Z,49.37
2019-03-30T09:24:14.520Z,48.59
2019-03-30T09:25:14.596Z,47.81
2019-03-30T09:26:16.602Z,48.08
2019-03-30T09:27:14.741Z,48.39
2019-03-30T09:28:14.807Z,49.46
2019-03-30T09:29:14.876Z,49.17
2019-03-30T09:30:14.948Z,49.46
2019-03-30T09:31:15.024Z,48.21
2019-03-30T09:32:15.239Z,47.91
2019-03-30T09:33:15.156Z,47.91
2019-03-30T09:34:15.231Z,48.39
2019-03-30T09:35:15.297Z,49.17
2019-03-30T09:36:15.376Z,47.91
2019-03-30T09:37:15.445Z,48.79
2019-03-30T09:38:15.509Z,49.55
2019-03-30T09:39:15.581Z,49.85
2019-03-30T09:40:15.650Z,49.07
2019-03-30T09:41:15.728Z,49.55
2019-03-30T09:42:15.796Z,49.37
2019-03-30T09:43:15.866Z,48.81
2019-03-30T09:44:15.931Z,48.13
2019-03-30T09:45:16.005Z,48.83
2019-03-30T09:46:16.084Z,47.96
2019-03-30T09:47:16.141Z,46.58
2019-03-30T09:48:16.212Z,47.86
2019-03-30T09:49:16.281Z,46.70
2019-03-30T09:50:16.353Z,46.68
2019-03-30T09:51:16.425Z,46.22
2019-03-30T09:52:16.501Z,46.70
2019-03-30T09:53:16.569Z,48.06
2019-03-30T09:54:23.517Z,46.80
2019-03-30T09:55:16.709Z,46.70
2019-03-30T09:56:16.787Z,47.41
2019-03-30T09:57:16.849Z,47.21
2019-03-30T09:58:16.913Z,47.69
2019-03-30T09:59:16.981Z,46.92
2019-03-30T10:00:17.053Z,46.63
2019-03-30T10:01:17.214Z,45.88
2019-03-30T10:02:17.194Z,45.90
2019-03-30T10:03:17.270Z,43.75
2019-03-30T10:04:17.334Z,43.55
2019-03-30T10:05:17.402Z,44.02
2019-03-30T10:06:17.482Z,43.92
2019-03-30T10:07:17.557Z,45.10
2019-03-30T10:08:17.618Z,44.45
2019-03-30T10:09:17.681Z,43.54
2019-03-30T10:10:17.756Z,43.92
2019-03-30T10:11:17.831Z,44.60
2019-03-30T10:12:17.918Z,45.37
2019-03-30T10:13:17.963Z,45.98
2019-03-30T10:14:18.033Z,45.49
2019-03-30T10:15:18.102Z,44.96
2019-03-30T10:16:18.184Z,43.38
2019-03-30T10:17:18.244Z,42.13
2019-03-30T10:18:18.315Z,42.49
2019-03-30T10:19:18.382Z,43.41
2019-03-30T10:20:18.452Z,43.99
2019-03-30T10:21:18.530Z,44.94
2019-03-30T10:22:18.599Z,46.03
2019-03-30T10:23:18.660Z,45.52
2019-03-30T10:24:18.730Z,45.14
2019-03-30T10:25:18.799Z,45.52
2019-03-30T10:26:18.891Z,47.07
2019-03-30T10:27:18.947Z,45.91
2019-03-30T10:28:19.011Z,45.40
2019-03-30T10:29:19.085Z,46.58
2019-03-30T10:30:19.146Z,46.78
2019-03-30T10:31:19.239Z,46.51
2019-03-30T10:32:19.287Z,45.21
2019-03-30T10:33:19.355Z,45.31
2019-03-30T10:34:19.427Z,45.79
2019-03-30T10:35:19.496Z,47.05
2019-03-30T10:36:19.577Z,46.08
2019-03-30T10:37:19.762Z,45.01
2019-03-30T10:38:19.703Z,45.01
2019-03-30T10:39:19.772Z,43.74
2019-03-30T10:40:20.962Z,45.38
2019-03-30T10:41:19.923Z,44.32
2019-03-30T10:42:19.989Z,45.28
2019-03-30T10:43:20.050Z,44.90
2019-03-30T10:44:20.120Z,44.87
2019-03-30T10:45:20.191Z,46.69
2019-03-30T10:46:20.531Z,46.66
2019-03-30T10:47:20.400Z,47.99
2019-03-30T10:48:20.395Z,48.47
2019-03-30T10:49:20.468Z,48.21
2019-03-30T10:50:20.556Z,48.21
2019-03-30T10:51:20.609Z,48.49
2019-03-30T10:52:20.676Z,47.72
2019-03-30T10:53:20.738Z,46.59
2019-03-30T10:54:20.804Z,46.66
2019-03-30T10:55:20.876Z,45.72
2019-03-30T10:56:20.952Z,48.03
2019-03-30T10:57:21.019Z,45.60
2019-03-30T10:58:21.080Z,46.45
2019-03-30T10:59:21.150Z,48.06
2019-03-30T11:00:21.220Z,49.29
2019-03-30T11:01:21.293Z,50.93
2019-03-30T11:02:21.713Z,51.53
2019-03-30T11:03:21.424Z,49.02
2019-03-30T11:04:21.493Z,49.38
2019-03-30T11:05:21.560Z,49.36
2019-03-30T11:06:21.630Z,48.88
2019-03-30T11:07:21.697Z,50.35
2019-03-30T11:08:21.792Z,50.45
2019-03-30T11:09:21.836Z,49.74
2019-03-30T11:10:21.904Z,50.25
2019-03-30T11:11:21.979Z,50.73
2019-03-30T11:12:22.041Z,50.42
2019-03-30T11:13:22.188Z,50.13
2019-03-30T11:14:22.175Z,50.25
2019-03-30T11:15:22.242Z,50.71
2019-03-30T11:16:22.310Z,50.13
2019-03-30T11:17:22.377Z,50.23
2019-03-30T11:18:22.454Z,50.45
2019-03-30T11:19:22.519Z,50.27
2019-03-30T11:20:22.585Z,49.79
2019-03-30T11:21:22.649Z,48.83
2019-03-30T11:22:22.717Z,48.76
2019-03-30T11:23:22.791Z,48.38
2019-03-30T11:24:22.858Z,48.38
2019-03-30T11:25:22.918Z,48.38
2019-03-30T11:26:22.996Z,47.99
2019-03-30T11:27:23.054Z,47.03
2019-03-30T11:28:23.314Z,47.77
2019-03-30T11:29:23.190Z,48.28
2019-03-30T11:30:23.258Z,49.15
2019-03-30T11:31:23.327Z,47.99
2019-03-30T11:32:23.394Z,49.27
2019-03-30T11:33:23.470Z,48.86
2019-03-30T11:34:23.541Z,47.63
2019-03-30T11:35:23.598Z,46.47
2019-03-30T11:36:23.665Z,47.82
2019-03-30T11:37:23.733Z,46.86
2019-03-30T11:38:23.807Z,47.72
2019-03-30T11:39:23.874Z,46.86
2019-03-30T11:40:23.933Z,46.56
2019-03-30T11:41:25.047Z,46.45
2019-03-30T11:42:24.075Z,46.83
2019-03-30T11:43:24.238Z,46.25
2019-03-30T11:44:24.210Z,46.35
2019-03-30T11:45:24.274Z,46.81
2019-03-30T11:46:24.345Z,47.85
2019-03-30T11:47:24.410Z,47.87
2019-03-30T11:48:24.487Z,48.54
2019-03-30T11:49:24.555Z,48.38
2019-03-30T11:50:24.617Z,47.99
2019-03-30T11:51:24.679Z,46.66
2019-03-30T11:52:24.743Z,47.14
2019-03-30T11:53:24.824Z,47.12
2019-03-30T11:54:24.901Z,46.64
2019-03-30T11:55:24.955Z,46.25
2019-03-30T11:56:25.018Z,47.60
2019-03-30T11:57:25.086Z,47.99
2019-03-30T11:58:25.194Z,46.93
2019-03-30T11:59:25.226Z,46.47
2019-03-30T12:00:25.291Z,47.63
2019-03-30T12:01:25.360Z,46.56
2019-03-30T12:02:28.108Z,46.88
2019-03-30T12:03:25.514Z,46.69
2019-03-30T12:04:25.571Z,45.89
2019-03-30T12:05:25.627Z,45.70
2019-03-30T12:06:25.704Z,45.70
2019-03-30T12:07:25.766Z,47.24
2019-03-30T12:08:25.848Z,45.70
2019-03-30T12:09:25.919Z,45.03
2019-03-30T12:10:25.971Z,45.70
2019-03-30T12:11:26.039Z,45.70
2019-03-30T12:12:26.108Z,45.79
2019-03-30T12:13:26.184Z,45.89
2019-03-30T12:14:26.242Z,45.51
2019-03-30T12:15:26.332Z,45.43
2019-03-30T12:16:26.379Z,45.14
2019-03-30T12:17:26.443Z,45.62
2019-03-30T12:18:26.527Z,45.62
2019-03-30T12:19:26.588Z,45.43
2019-03-30T12:20:26.647Z,46.88
2019-03-30T12:21:26.717Z,46.88
2019-03-30T12:22:26.784Z,46.40
2019-03-30T12:23:26.864Z,45.82
2019-03-30T12:24:26.933Z,46.97
2019-03-30T12:25:35.507Z,44.76
2019-03-30T12:26:27.056Z,45.43
2019-03-30T12:27:27.125Z,45.72
2019-03-30T12:28:27.287Z,45.14
2019-03-30T12:29:27.266Z,45.43
2019-03-30T12:30:27.328Z,44.46
2019-03-30T12:31:27.396Z,45.14
2019-03-30T12:32:27.469Z,45.51
2019-03-30T12:33:27.541Z,45.51
2019-03-30T12:34:27.610Z,45.21
2019-03-30T12:35:27.669Z,45.51
2019-03-30T12:36:27.743Z,45.12
2019-03-30T12:37:27.805Z,46.37
2019-03-30T12:38:27.884Z,45.79
2019-03-30T12:39:27.949Z,45.12
2019-03-30T12:40:28.011Z,46.37
2019-03-30T12:41:28.083Z,45.51
2019-03-30T12:42:28.145Z,46.45
2019-03-30T12:43:28.261Z,47.03
2019-03-30T12:44:28.281Z,47.70
2019-03-30T12:45:28.357Z,46.83
2019-03-30T12:46:28.418Z,45.39
2019-03-30T12:47:28.486Z,45.97
2019-03-30T12:48:28.562Z,46.83
2019-03-30T12:49:28.633Z,46.86
2019-03-30T12:50:28.694Z,45.68
2019-03-30T12:51:28.757Z,45.12
2019-03-30T12:52:28.830Z,45.03
2019-03-30T12:53:28.902Z,44.54